sensor_id;sensor_type;location;lat;lon;timestamp;pressure;altitude;pressure_sealevel;temperature;humidity
11830;BME280;5972;42.134;24.718;2023-02-11T00:00:37;101618.81;;;-3.37;89.95
11830;BME280;5972;42.134;24.718;2023-02-11T00:03:05;101613.69;;;-3.52;91.00
11830;BME280;5972;42.134;24.718;2023-02-11T00:05:32;101614.00;;;-3.81;93.46
11830;BME280;5972;42.134;24.718;2023-02-11T00:07:59;101606.31;;;-3.69;94.18
11830;BME280;5972;42.134;24.718;2023-02-11T00:10:26;101610.81;;;-3.63;94.48
11830;BME280;5972;42.134;24.718;2023-02-11T00:12:53;101616.34;;;-3.52;94.04
11830;BME280;5972;42.134;24.718;2023-02-11T00:15:20;101576.41;;;-3.70;93.25
11830;BME280;5972;42.134;24.718;2023-02-11T00:17:47;101584.53;;;-3.65;92.20
11830;BME280;5972;42.134;24.718;2023-02-11T00:20:15;101626.28;;;-3.54;93.20
11830;BME280;5972;42.134;24.718;2023-02-11T00:22:42;101610.63;;;-3.55;92.71
11830;BME280;5972;42.134;24.718;2023-02-11T00:25:09;101630.78;;;-3.54;93.65
11830;BME280;5972;42.134;24.718;2023-02-11T00:27:36;101598.59;;;-3.58;93.50
11830;BME280;5972;42.134;24.718;2023-02-11T00:30:03;101611.47;;;-3.42;93.27
11830;BME280;5972;42.134;24.718;2023-02-11T00:32:30;101612.09;;;-3.33;92.38
11830;BME280;5972;42.134;24.718;2023-02-11T00:34:57;101620.66;;;-3.31;91.23
11830;BME280;5972;42.134;24.718;2023-02-11T00:37:26;101602.09;;;-3.38;91.03
11830;BME280;5972;42.134;24.718;2023-02-11T00:39:53;101613.13;;;-3.21;90.23
11830;BME280;5972;42.134;24.718;2023-02-11T00:42:20;101600.69;;;-3.27;89.86
11830;BME280;5972;42.134;24.718;2023-02-11T00:44:46;101612.13;;;-3.20;89.35
11830;BME280;5972;42.134;24.718;2023-02-11T00:47:13;101600.09;;;-3.22;88.74
11830;BME280;5972;42.134;24.718;2023-02-11T00:49:40;101562.38;;;-3.57;88.78
11830;BME280;5972;42.134;24.718;2023-02-11T00:52:07;101557.50;;;-3.47;88.47
11830;BME280;5972;42.134;24.718;2023-02-11T00:54:35;101603.97;;;-3.12;88.71
11830;BME280;5972;42.134;24.718;2023-02-11T00:57:02;101599.09;;;-3.15;87.79
11830;BME280;5972;42.134;24.718;2023-02-11T00:59:29;101599.91;;;-3.14;87.30
11830;BME280;5972;42.134;24.718;2023-02-11T01:01:56;101602.13;;;-3.11;87.70
11830;BME280;5972;42.134;24.718;2023-02-11T01:04:23;101606.41;;;-3.17;88.30
11830;BME280;5972;42.134;24.718;2023-02-11T01:06:49;101554.03;;;-3.48;88.61
11830;BME280;5972;42.134;24.718;2023-02-11T01:09:16;101591.94;;;-3.27;87.83
11830;BME280;5972;42.134;24.718;2023-02-11T01:11:45;101590.31;;;-3.22;88.41
11830;BME280;5972;42.134;24.718;2023-02-11T01:14:12;101599.88;;;-3.21;88.68
11830;BME280;5972;42.134;24.718;2023-02-11T01:16:39;101541.59;;;-3.60;89.43
11830;BME280;5972;42.134;24.718;2023-02-11T01:19:06;101591.75;;;-3.26;91.06
11830;BME280;5972;42.134;24.718;2023-02-11T01:21:33;101595.00;;;-3.24;91.67
11830;BME280;5972;42.134;24.718;2023-02-11T01:23:59;101541.63;;;-3.54;92.10
11830;BME280;5972;42.134;24.718;2023-02-11T01:26:26;101528.56;;;-3.62;91.91
11830;BME280;5972;42.134;24.718;2023-02-11T01:28:55;101582.56;;;-3.30;93.71
11830;BME280;5972;42.134;24.718;2023-02-11T01:31:21;101478.25;;;-3.95;94.05
11830;BME280;5972;42.134;24.718;2023-02-11T01:33:48;101562.63;;;-3.46;94.38
11830;BME280;5972;42.134;24.718;2023-02-11T01:36:15;101580.94;;;-3.38;96.29
11830;BME280;5972;42.134;24.718;2023-02-11T01:38:42;101564.81;;;-3.49;96.14
11830;BME280;5972;42.134;24.718;2023-02-11T01:41:12;101577.25;;;-3.43;96.89
11830;BME280;5972;42.134;24.718;2023-02-11T01:43:41;101567.66;;;-3.51;97.62
11830;BME280;5972;42.134;24.718;2023-02-11T01:46:28;101553.19;;;-3.61;98.80
11830;BME280;5972;42.134;24.718;2023-02-11T01:49:03;101564.00;;;-3.63;100.00
11830;BME280;5972;42.134;24.718;2023-02-11T01:51:34;101541.75;;;-3.88;100.00
11830;BME280;5972;42.134;24.718;2023-02-11T01:54:04;101547.09;;;-3.75;100.00
11830;BME280;5972;42.134;24.718;2023-02-11T01:56:50;101530.75;;;-3.92;100.00
11830;BME280;5972;42.134;24.718;2023-02-11T01:59:40;101561.31;;;-3.76;100.00
11830;BME280;5972;42.134;24.718;2023-02-11T02:02:12;101567.63;;;-3.77;100.00
11830;BME280;5972;42.134;24.718;2023-02-11T02:04:46;101569.00;;;-3.88;100.00
11830;BME280;5972;42.134;24.718;2023-02-11T02:07:21;101570.03;;;-3.89;100.00
11830;BME280;5972;42.134;24.718;2023-02-11T02:09:55;101570.25;;;-3.90;100.00
11830;BME280;5972;42.134;24.718;2023-02-11T02:12:26;101531.09;;;-4.14;100.00
11830;BME280;5972;42.134;24.718;2023-02-11T02:15:10;101552.75;;;-3.91;100.00
11830;BME280;5972;42.134;24.718;2023-02-11T02:21:03;101551.72;;;-3.90;100.00
11830;BME280;5972;42.134;24.718;2023-02-11T02:23:59;101554.56;;;-3.92;100.00
11830;BME280;5972;42.134;24.718;2023-02-11T02:27:00;101576.91;;;-3.94;100.00
11830;BME280;5972;42.134;24.718;2023-02-11T02:35:22;101551.47;;;-4.02;99.95
11830;BME280;5972;42.134;24.718;2023-02-11T02:37:55;101558.38;;;-4.01;100.00
11830;BME280;5972;42.134;24.718;2023-02-11T02:40:30;101526.44;;;-4.53;100.00
11830;BME280;5972;42.134;24.718;2023-02-11T02:42:59;101567.31;;;-4.08;100.00
11830;BME280;5972;42.134;24.718;2023-02-11T02:45:27;101564.88;;;-4.10;100.00
11830;BME280;5972;42.134;24.718;2023-02-11T02:47:55;101568.91;;;-4.14;100.00
11830;BME280;5972;42.134;24.718;2023-02-11T02:50:26;101565.66;;;-4.16;100.00
11830;BME280;5972;42.134;24.718;2023-02-11T02:53:03;101534.28;;;-4.32;100.00
11830;BME280;5972;42.134;24.718;2023-02-11T02:55:43;101562.59;;;-4.20;100.00
11830;BME280;5972;42.134;24.718;2023-02-11T03:01:33;101571.19;;;-4.04;99.85
11830;BME280;5972;42.134;24.718;2023-02-11T03:04:11;101515.91;;;-4.47;100.00
11830;BME280;5972;42.134;24.718;2023-02-11T03:06:48;101579.13;;;-4.04;100.00
11830;BME280;5972;42.134;24.718;2023-02-11T03:09:20;101572.63;;;-4.02;99.31
11830;BME280;5972;42.134;24.718;2023-02-11T03:11:47;101533.09;;;-4.16;98.81
11830;BME280;5972;42.134;24.718;2023-02-11T03:14:16;101561.81;;;-4.13;98.92
11830;BME280;5972;42.134;24.718;2023-02-11T03:16:44;101546.13;;;-4.15;99.24
11830;BME280;5972;42.134;24.718;2023-02-11T03:19:17;101578.28;;;-4.11;99.33
11830;BME280;5972;42.134;24.718;2023-02-11T03:21:46;101567.50;;;-4.10;99.52
11830;BME280;5972;42.134;24.718;2023-02-11T03:24:20;101577.38;;;-4.32;100.00
11830;BME280;5972;42.134;24.718;2023-02-11T03:26:51;101575.69;;;-4.39;100.00
11830;BME280;5972;42.134;24.718;2023-02-11T03:29:29;101573.00;;;-4.52;100.00
11830;BME280;5972;42.134;24.718;2023-02-11T03:32:01;101559.84;;;-4.46;100.00
11830;BME280;5972;42.134;24.718;2023-02-11T03:34:36;101534.38;;;-4.53;100.00
11830;BME280;5972;42.134;24.718;2023-02-11T03:37:09;101573.53;;;-4.23;100.00
11830;BME280;5972;42.134;24.718;2023-02-11T03:39:43;101561.06;;;-4.42;100.00
11830;BME280;5972;42.134;24.718;2023-02-11T03:42:13;101587.94;;;-4.32;100.00
11830;BME280;5972;42.134;24.718;2023-02-11T03:44:44;101578.41;;;-4.26;100.00
11830;BME280;5972;42.134;24.718;2023-02-11T03:47:13;101567.59;;;-4.38;100.00
11830;BME280;5972;42.134;24.718;2023-02-11T03:49:44;101578.28;;;-4.11;100.00
11830;BME280;5972;42.134;24.718;2023-02-11T03:52:14;101574.41;;;-4.15;100.00
11830;BME280;5972;42.134;24.718;2023-02-11T03:54:45;101577.22;;;-4.17;100.00
11830;BME280;5972;42.134;24.718;2023-02-11T03:57:14;101571.16;;;-4.11;100.00
11830;BME280;5972;42.134;24.718;2023-02-11T03:59:52;101573.84;;;-4.04;100.00
11830;BME280;5972;42.134;24.718;2023-02-11T04:02:19;101580.75;;;-4.03;100.00
11830;BME280;5972;42.134;24.718;2023-02-11T04:04:48;101573.41;;;-4.08;100.00
11830;BME280;5972;42.134;24.718;2023-02-11T04:07:14;101539.47;;;-4.45;100.00
11830;BME280;5972;42.134;24.718;2023-02-11T04:09:41;101582.75;;;-4.12;100.00
11830;BME280;5972;42.134;24.718;2023-02-11T04:12:08;101573.16;;;-4.20;100.00
11830;BME280;5972;42.134;24.718;2023-02-11T04:14:35;101507.22;;;-4.75;100.00
11830;BME280;5972;42.134;24.718;2023-02-11T04:17:02;101517.63;;;-4.67;100.00
11830;BME280;5972;42.134;24.718;2023-02-11T04:19:29;101585.19;;;-4.10;100.00
11830;BME280;5972;42.134;24.718;2023-02-11T04:22:01;101505.50;;;-4.96;100.00
11830;BME280;5972;42.134;24.718;2023-02-11T04:24:28;101535.47;;;-4.76;100.00
11830;BME280;5972;42.134;24.718;2023-02-11T04:26:55;101524.34;;;-4.99;100.00
11830;BME280;5972;42.134;24.718;2023-02-11T04:29:21;101571.84;;;-4.71;100.00
11830;BME280;5972;42.134;24.718;2023-02-11T04:31:48;101536.72;;;-4.99;100.00
11830;BME280;5972;42.134;24.718;2023-02-11T04:34:16;101570.13;;;-5.13;100.00
11830;BME280;5972;42.134;24.718;2023-02-11T04:36:43;101511.78;;;-5.46;100.00
11830;BME280;5972;42.134;24.718;2023-02-11T04:39:12;101519.06;;;-5.27;100.00
11830;BME280;5972;42.134;24.718;2023-02-11T04:41:39;101565.63;;;-4.91;100.00
11830;BME280;5972;42.134;24.718;2023-02-11T04:44:07;101557.84;;;-4.99;100.00
11830;BME280;5972;42.134;24.718;2023-02-11T04:46:34;101552.75;;;-5.01;100.00
11830;BME280;5972;42.134;24.718;2023-02-11T04:49:01;101545.50;;;-4.92;100.00
11830;BME280;5972;42.134;24.718;2023-02-11T04:51:28;101550.59;;;-5.19;100.00
11830;BME280;5972;42.134;24.718;2023-02-11T04:53:54;101532.78;;;-5.10;100.00
11830;BME280;5972;42.134;24.718;2023-02-11T04:56:22;101497.00;;;-5.19;100.00
11830;BME280;5972;42.134;24.718;2023-02-11T04:58:49;101512.72;;;-5.05;100.00
11830;BME280;5972;42.134;24.718;2023-02-11T05:01:16;101546.34;;;-4.92;100.00
11830;BME280;5972;42.134;24.718;2023-02-11T05:03:43;101557.78;;;-4.78;100.00
11830;BME280;5972;42.134;24.718;2023-02-11T05:06:10;101507.03;;;-5.08;100.00
11830;BME280;5972;42.134;24.718;2023-02-11T05:08:37;101553.13;;;-4.76;100.00
11830;BME280;5972;42.134;24.718;2023-02-11T05:11:04;101534.00;;;-4.85;100.00
11830;BME280;5972;42.134;24.718;2023-02-11T05:13:33;101556.81;;;-4.71;100.00
11830;BME280;5972;42.134;24.718;2023-02-11T05:15:59;101550.78;;;-4.65;100.00
11830;BME280;5972;42.134;24.718;2023-02-11T05:18:26;101552.25;;;-4.55;100.00
11830;BME280;5972;42.134;24.718;2023-02-11T05:20:53;101538.75;;;-4.74;100.00
11830;BME280;5972;42.134;24.718;2023-02-11T05:23:20;101555.47;;;-4.60;100.00
11830;BME280;5972;42.134;24.718;2023-02-11T05:25:47;101544.03;;;-4.67;100.00
11830;BME280;5972;42.134;24.718;2023-02-11T05:28:14;101558.88;;;-4.66;100.00
11830;BME280;5972;42.134;24.718;2023-02-11T05:30:42;101532.78;;;-4.82;100.00
11830;BME280;5972;42.134;24.718;2023-02-11T05:33:10;101553.44;;;-4.92;100.00
11830;BME280;5972;42.134;24.718;2023-02-11T05:35:37;101522.38;;;-5.18;100.00
11830;BME280;5972;42.134;24.718;2023-02-11T05:38:04;101546.22;;;-4.77;100.00
11830;BME280;5972;42.134;24.718;2023-02-11T05:40:33;101543.03;;;-4.66;100.00
11830;BME280;5972;42.134;24.718;2023-02-11T05:43:00;101566.38;;;-4.35;100.00
11830;BME280;5972;42.134;24.718;2023-02-11T05:45:27;101557.00;;;-4.38;100.00
11830;BME280;5972;42.134;24.718;2023-02-11T05:47:56;101558.94;;;-4.18;100.00
11830;BME280;5972;42.134;24.718;2023-02-11T05:50:23;101530.66;;;-4.25;100.00
11830;BME280;5972;42.134;24.718;2023-02-11T05:52:51;101536.59;;;-4.09;100.00
11830;BME280;5972;42.134;24.718;2023-02-11T05:55:18;101572.31;;;-3.72;100.00
11830;BME280;5972;42.134;24.718;2023-02-11T05:57:45;101573.53;;;-3.75;99.26
11830;BME280;5972;42.134;24.718;2023-02-11T06:00:14;101562.38;;;-3.51;98.71
11830;BME280;5972;42.134;24.718;2023-02-11T06:02:41;101574.25;;;-3.07;97.02
11830;BME280;5972;42.134;24.718;2023-02-11T06:05:09;101574.84;;;-2.79;93.90
11830;BME280;5972;42.134;24.718;2023-02-11T06:07:36;101560.97;;;-2.68;89.04
11830;BME280;5972;42.134;24.718;2023-02-11T06:10:04;101569.44;;;-2.39;86.69
11830;BME280;5972;42.134;24.718;2023-02-11T06:12:31;101535.41;;;-2.42;84.42
11830;BME280;5972;42.134;24.718;2023-02-11T06:14:58;101560.75;;;-1.95;82.47
11830;BME280;5972;42.134;24.718;2023-02-11T06:17:28;101490.91;;;-2.34;78.96
11830;BME280;5972;42.134;24.718;2023-02-11T06:19:57;101470.75;;;-2.35;75.64
11830;BME280;5972;42.134;24.718;2023-02-11T06:22:38;101472.25;;;-2.07;74.05
11830;BME280;5972;42.134;24.718;2023-02-11T06:25:08;101575.19;;;-0.97;69.84
11830;BME280;5972;42.134;24.718;2023-02-11T06:27:37;101565.53;;;-0.92;67.89
11830;BME280;5972;42.134;24.718;2023-02-11T06:30:08;101456.09;;;-1.75;66.92
11830;BME280;5972;42.134;24.718;2023-02-11T06:32:58;101508.22;;;-1.55;67.73
11830;BME280;5972;42.134;24.718;2023-02-11T06:35:39;101500.66;;;-1.83;68.65
11830;BME280;5972;42.134;24.718;2023-02-11T06:38:09;101470.16;;;-2.05;69.12
11830;BME280;5972;42.134;24.718;2023-02-11T06:40:36;101572.00;;;-1.62;70.02
11830;BME280;5972;42.134;24.718;2023-02-11T06:43:03;101579.00;;;-1.74;71.78
11830;BME280;5972;42.134;24.718;2023-02-11T06:45:30;101564.44;;;-2.03;75.82
11830;BME280;5972;42.134;24.718;2023-02-11T06:47:57;101569.00;;;-2.23;80.10
11830;BME280;5972;42.134;24.718;2023-02-11T06:50:24;101545.00;;;-2.41;79.71
11830;BME280;5972;42.134;24.718;2023-02-11T06:52:50;101573.31;;;-2.29;80.72
11830;BME280;5972;42.134;24.718;2023-02-11T06:55:20;101567.59;;;-2.32;83.34
11830;BME280;5972;42.134;24.718;2023-02-11T06:57:48;101555.16;;;-2.32;85.34
11830;BME280;5972;42.134;24.718;2023-02-11T07:00:16;101557.41;;;-2.29;86.86
11830;BME280;5972;42.134;24.718;2023-02-11T07:02:45;101417.75;;;-2.99;86.28
11830;BME280;5972;42.134;24.718;2023-02-11T07:05:12;101555.59;;;-1.90;86.67
11830;BME280;5972;42.134;24.718;2023-02-11T07:07:39;101549.81;;;-1.74;85.80
11830;BME280;5972;42.134;24.718;2023-02-11T07:10:11;101457.19;;;-2.20;84.86
11830;BME280;5972;42.134;24.718;2023-02-11T07:12:42;101535.28;;;-1.15;82.93
11830;BME280;5972;42.134;24.718;2023-02-11T07:15:09;101444.56;;;-0.58;77.01
11830;BME280;5972;42.134;24.718;2023-02-11T07:17:36;101550.34;;;1.71;62.39
11830;BME280;5972;42.134;24.718;2023-02-11T07:20:07;101529.47;;;3.03;53.60
11830;BME280;5972;42.134;24.718;2023-02-11T07:22:38;101546.72;;;5.01;47.19
11830;BME280;5972;42.134;24.718;2023-02-11T07:25:05;101534.78;;;6.59;42.28
11830;BME280;5972;42.134;24.718;2023-02-11T07:27:32;101471.28;;;6.93;40.43
11830;BME280;5972;42.134;24.718;2023-02-11T07:30:00;101425.94;;;7.90;37.07
11830;BME280;5972;42.134;24.718;2023-02-11T07:32:30;101532.03;;;9.69;34.88
11830;BME280;5972;42.134;24.718;2023-02-11T07:35:01;101385.00;;;9.27;33.11
11830;BME280;5972;42.134;24.718;2023-02-11T07:37:28;101465.53;;;10.29;32.09
11830;BME280;5972;42.134;24.718;2023-02-11T07:39:55;101462.03;;;10.61;31.70
11830;BME280;5972;42.134;24.718;2023-02-11T07:42:21;101487.97;;;10.80;31.09
11830;BME280;5972;42.134;24.718;2023-02-11T07:44:48;101530.53;;;11.53;30.43
11830;BME280;5972;42.134;24.718;2023-02-11T07:47:18;101430.63;;;11.19;30.07
11830;BME280;5972;42.134;24.718;2023-02-11T07:49:48;101467.88;;;11.41;29.77
11830;BME280;5972;42.134;24.718;2023-02-11T07:52:18;101526.81;;;11.77;30.04
11830;BME280;5972;42.134;24.718;2023-02-11T07:54:50;101506.63;;;11.83;29.87
11830;BME280;5972;42.134;24.718;2023-02-11T07:57:28;101468.44;;;12.15;29.03
11830;BME280;5972;42.134;24.718;2023-02-11T07:59:54;101527.78;;;12.66;28.77
11830;BME280;5972;42.134;24.718;2023-02-11T08:02:25;101509.53;;;12.80;28.59
11830;BME280;5972;42.134;24.718;2023-02-11T08:04:52;101401.91;;;12.71;27.82
11830;BME280;5972;42.134;24.718;2023-02-11T08:07:21;101392.66;;;13.11;27.47
11830;BME280;5972;42.134;24.718;2023-02-11T08:09:50;101428.13;;;13.37;27.22
11830;BME280;5972;42.134;24.718;2023-02-11T08:12:18;101526.16;;;13.80;27.25
11830;BME280;5972;42.134;24.718;2023-02-11T08:14:45;101503.22;;;13.64;27.40
11830;BME280;5972;42.134;24.718;2023-02-11T08:17:26;101478.25;;;13.53;27.42
11830;BME280;5972;42.134;24.718;2023-02-11T08:19:54;101510.41;;;14.42;27.05
11830;BME280;5972;42.134;24.718;2023-02-11T08:22:23;101489.06;;;14.19;26.68
11830;BME280;5972;42.134;24.718;2023-02-11T08:24:55;101426.59;;;13.88;26.71
11830;BME280;5972;42.134;24.718;2023-02-11T08:27:24;101507.66;;;14.68;26.49
11830;BME280;5972;42.134;24.718;2023-02-11T08:29:52;101482.66;;;14.66;26.42
11830;BME280;5972;42.134;24.718;2023-02-11T08:32:19;101436.69;;;14.39;26.39
11830;BME280;5972;42.134;24.718;2023-02-11T08:34:49;101343.03;;;13.97;26.33
11830;BME280;5972;42.134;24.718;2023-02-11T08:37:19;101432.66;;;14.28;26.60
11830;BME280;5972;42.134;24.718;2023-02-11T08:39:47;101476.56;;;14.43;26.58
11830;BME280;5972;42.134;24.718;2023-02-11T08:42:17;101485.66;;;14.90;26.55
11830;BME280;5972;42.134;24.718;2023-02-11T08:44:45;101479.81;;;15.47;25.98
11830;BME280;5972;42.134;24.718;2023-02-11T08:47:19;101474.81;;;14.56;26.68
11830;BME280;5972;42.134;24.718;2023-02-11T08:49:45;101474.94;;;14.68;26.70
11830;BME280;5972;42.134;24.718;2023-02-11T08:52:19;101456.25;;;15.05;26.20
11830;BME280;5972;42.134;24.718;2023-02-11T08:54:46;101462.78;;;15.21;25.98
11830;BME280;5972;42.134;24.718;2023-02-11T08:57:13;101451.78;;;15.00;26.20
11830;BME280;5972;42.134;24.718;2023-02-11T08:59:40;101447.28;;;16.13;25.66
11830;BME280;5972;42.134;24.718;2023-02-11T09:05:21;101463.34;;;16.14;25.05
11830;BME280;5972;42.134;24.718;2023-02-11T09:08:05;101452.56;;;16.84;24.23
11830;BME280;5972;42.134;24.718;2023-02-11T09:10:39;101408.16;;;16.87;23.12
11830;BME280;5972;42.134;24.718;2023-02-11T09:13:12;101409.38;;;16.65;23.05
11830;BME280;5972;42.134;24.718;2023-02-11T09:15:39;101426.44;;;15.37;23.69
11830;BME280;5972;42.134;24.718;2023-02-11T09:18:06;101388.16;;;15.75;23.56
11830;BME280;5972;42.134;24.718;2023-02-11T09:20:36;101455.94;;;16.36;23.22
11830;BME280;5972;42.134;24.718;2023-02-11T09:23:04;101451.94;;;16.12;23.01
11830;BME280;5972;42.134;24.718;2023-02-11T09:25:33;101452.28;;;16.11;23.31
11830;BME280;5972;42.134;24.718;2023-02-11T09:28:03;101446.44;;;16.54;23.05
11830;BME280;5972;42.134;24.718;2023-02-11T09:30:32;101433.06;;;16.40;23.17
11830;BME280;5972;42.134;24.718;2023-02-11T09:32:59;101432.56;;;15.85;23.77
11830;BME280;5972;42.134;24.718;2023-02-11T09:35:29;101431.72;;;15.93;23.62
11830;BME280;5972;42.134;24.718;2023-02-11T09:37:59;101350.81;;;15.17;23.74
11830;BME280;5972;42.134;24.718;2023-02-11T09:40:27;101326.88;;;13.92;24.88
11830;BME280;5972;42.134;24.718;2023-02-11T09:43:01;101419.47;;;15.49;24.19
11830;BME280;5972;42.134;24.718;2023-02-11T09:45:35;101340.69;;;15.47;23.32
11830;BME280;5972;42.134;24.718;2023-02-11T09:48:05;101421.81;;;15.88;23.16
11830;BME280;5972;42.134;24.718;2023-02-11T09:50:42;101346.16;;;15.68;22.94
11830;BME280;5972;42.134;24.718;2023-02-11T09:53:13;101370.53;;;15.94;23.45
11830;BME280;5972;42.134;24.718;2023-02-11T09:55:56;101301.56;;;15.43;23.61
11830;BME280;5972;42.134;24.718;2023-02-11T09:58:26;101253.84;;;14.49;24.19
11830;BME280;5972;42.134;24.718;2023-02-11T10:01:11;101385.28;;;15.22;24.60
11830;BME280;5972;42.134;24.718;2023-02-11T10:03:58;101369.00;;;14.75;25.09
11830;BME280;5972;42.134;24.718;2023-02-11T10:06:40;101363.22;;;13.70;26.33
11830;BME280;5972;42.134;24.718;2023-02-11T10:09:24;101357.09;;;14.42;25.58
11830;BME280;5972;42.134;24.718;2023-02-11T10:12:10;101356.91;;;14.38;25.23
11830;BME280;5972;42.134;24.718;2023-02-11T10:18:06;101226.59;;;14.11;24.56
11830;BME280;5972;42.134;24.718;2023-02-11T10:20:53;101298.81;;;15.22;24.41
11830;BME280;5972;42.134;24.718;2023-02-11T10:23:32;101303.72;;;15.08;24.85
11830;BME280;5972;42.134;24.718;2023-02-11T10:26:02;101250.84;;;15.01;24.28
11830;BME280;5972;42.134;24.718;2023-02-11T10:28:44;101255.13;;;15.31;23.47
11830;BME280;5972;42.134;24.718;2023-02-11T10:31:23;101286.06;;;15.89;23.40
11830;BME280;5972;42.134;24.718;2023-02-11T10:33:54;101303.63;;;15.88;22.45
11830;BME280;5972;42.134;24.718;2023-02-11T10:36:27;101306.72;;;15.77;23.30
11830;BME280;5972;42.134;24.718;2023-02-11T10:38:59;101219.28;;;15.74;23.09
11830;BME280;5972;42.134;24.718;2023-02-11T10:41:33;101229.81;;;16.08;23.08
11830;BME280;5972;42.134;24.718;2023-02-11T10:44:06;101213.56;;;15.67;23.41
11830;BME280;5972;42.134;24.718;2023-02-11T10:46:41;101100.25;;;14.83;23.32
11830;BME280;5972;42.134;24.718;2023-02-11T10:49:08;101182.13;;;14.66;23.96
11830;BME280;5972;42.134;24.718;2023-02-11T10:51:37;101216.47;;;15.29;22.97
11830;BME280;5972;42.134;24.718;2023-02-11T10:54:17;101213.06;;;15.32;23.09
11830;BME280;5972;42.134;24.718;2023-02-11T10:56:47;101253.84;;;15.70;23.15
11830;BME280;5972;42.134;24.718;2023-02-11T10:59:22;101185.97;;;15.48;21.97
11830;BME280;5972;42.134;24.718;2023-02-11T11:02:16;101233.25;;;15.72;22.40
11830;BME280;5972;42.134;24.718;2023-02-11T11:04:48;101228.59;;;16.42;21.81
11830;BME280;5972;42.134;24.718;2023-02-11T11:07:18;101232.16;;;16.55;21.31
11830;BME280;5972;42.134;24.718;2023-02-11T11:09:50;101207.75;;;16.50;21.62
11830;BME280;5972;42.134;24.718;2023-02-11T11:12:34;101163.28;;;15.56;22.25
11830;BME280;5972;42.134;24.718;2023-02-11T11:15:15;101213.88;;;15.12;23.06
11830;BME280;5972;42.134;24.718;2023-02-11T11:17:46;101202.81;;;14.37;23.42
11830;BME280;5972;42.134;24.718;2023-02-11T11:20:20;101164.16;;;12.47;24.24
11830;BME280;5972;42.134;24.718;2023-02-11T11:25:38;101174.75;;;12.75;24.46
11830;BME280;5972;42.134;24.718;2023-02-11T11:28:21;101185.94;;;12.90;24.37
11830;BME280;5972;42.134;24.718;2023-02-11T11:30:51;101141.59;;;12.30;24.70
11830;BME280;5972;42.134;24.718;2023-02-11T11:33:21;101101.78;;;12.08;24.39
11830;BME280;5972;42.134;24.718;2023-02-11T11:35:59;101019.13;;;11.26;25.19
11830;BME280;5972;42.134;24.718;2023-02-11T11:38:27;101146.88;;;11.95;24.71
11830;BME280;5972;42.134;24.718;2023-02-11T11:41:19;101165.31;;;12.16;24.59
11830;BME280;5972;42.134;24.718;2023-02-11T11:44:03;101154.59;;;12.02;24.33
11830;BME280;5972;42.134;24.718;2023-02-11T11:46:34;101125.25;;;11.73;24.66
11830;BME280;5972;42.134;24.718;2023-02-11T11:49:09;101152.63;;;11.63;24.30
11830;BME280;5972;42.134;24.718;2023-02-11T11:51:40;101145.97;;;11.47;24.82
11830;BME280;5972;42.134;24.718;2023-02-11T11:54:11;101125.59;;;10.82;24.84
11830;BME280;5972;42.134;24.718;2023-02-11T11:56:43;101097.94;;;10.09;25.64
11830;BME280;5972;42.134;24.718;2023-02-11T11:59:12;101145.91;;;10.58;25.69
11830;BME280;5972;42.134;24.718;2023-02-11T12:01:51;101104.63;;;10.38;25.68
11830;BME280;5972;42.134;24.718;2023-02-11T12:05:00;101109.66;;;10.31;25.76
11830;BME280;5972;42.134;24.718;2023-02-11T12:07:46;101096.63;;;10.33;25.61
11830;BME280;5972;42.134;24.718;2023-02-11T12:10:47;101122.88;;;10.33;25.53
11830;BME280;5972;42.134;24.718;2023-02-11T12:13:28;101074.31;;;9.73;25.95
11830;BME280;5972;42.134;24.718;2023-02-11T12:16:08;101079.81;;;9.82;26.34
11830;BME280;5972;42.134;24.718;2023-02-11T12:18:57;101098.06;;;9.90;26.20
11830;BME280;5972;42.134;24.718;2023-02-11T12:21:38;101043.03;;;9.26;26.43
11830;BME280;5972;42.134;24.718;2023-02-11T12:24:21;101108.34;;;9.88;26.12
11830;BME280;5972;42.134;24.718;2023-02-11T12:26:55;101065.13;;;9.74;25.54
11830;BME280;5972;42.134;24.718;2023-02-11T12:29:30;101094.75;;;10.07;25.12
11830;BME280;5972;42.134;24.718;2023-02-11T12:32:09;101068.38;;;10.12;24.53
11830;BME280;5972;42.134;24.718;2023-02-11T12:35:09;101095.03;;;10.46;24.85
11830;BME280;5972;42.134;24.718;2023-02-11T12:37:57;101067.50;;;10.17;25.23
11830;BME280;5972;42.134;24.718;2023-02-11T12:40:39;101042.97;;;9.72;25.27
11830;BME280;5972;42.134;24.718;2023-02-11T12:43:17;101080.81;;;9.99;25.14
11830;BME280;5972;42.134;24.718;2023-02-11T12:46:05;101086.72;;;10.15;25.76
11830;BME280;5972;42.134;24.718;2023-02-11T12:48:43;101061.69;;;9.96;25.73
11830;BME280;5972;42.134;24.718;2023-02-11T12:51:23;101085.13;;;9.73;25.60
11830;BME280;5972;42.134;24.718;2023-02-11T12:54:18;101077.38;;;9.39;26.08
11830;BME280;5972;42.134;24.718;2023-02-11T12:56:51;101077.00;;;9.46;26.01
11830;BME280;5972;42.134;24.718;2023-02-11T12:59:42;101057.34;;;8.43;26.87
11830;BME280;5972;42.134;24.718;2023-02-11T13:02:26;101066.97;;;9.00;26.76
11830;BME280;5972;42.134;24.718;2023-02-11T13:04:56;101072.84;;;9.21;26.31
11830;BME280;5972;42.134;24.718;2023-02-11T13:07:31;101005.69;;;9.01;25.73
11830;BME280;5972;42.134;24.718;2023-02-11T13:10:06;100990.19;;;9.06;25.48
11830;BME280;5972;42.134;24.718;2023-02-11T13:12:47;101063.34;;;9.24;26.12
11830;BME280;5972;42.134;24.718;2023-02-11T13:15:44;101056.19;;;9.74;25.59
11830;BME280;5972;42.134;24.718;2023-02-11T13:18:21;101048.19;;;9.82;25.62
11830;BME280;5972;42.134;24.718;2023-02-11T13:20:58;100987.31;;;9.44;25.70
11830;BME280;5972;42.134;24.718;2023-02-11T13:23:37;101051.78;;;9.91;25.62
11830;BME280;5972;42.134;24.718;2023-02-11T13:26:15;100996.53;;;8.83;25.66
11830;BME280;5972;42.134;24.718;2023-02-11T13:28:50;101039.28;;;8.95;26.05
11830;BME280;5972;42.134;24.718;2023-02-11T13:31:19;100878.56;;;8.05;26.00
11830;BME280;5972;42.134;24.718;2023-02-11T13:33:52;101033.78;;;9.46;26.03